sensor_id;sensor_type;location;lat;lon;timestamp;P1;durP1;ratioP1;P2;durP2;ratioP2
67372;SDS011;54257;54.496;18.412;2022-11-20T00:01:26;30.10;;;17.50;;
67372;SDS011;54257;54.496;18.412;2022-11-20T00:03:54;31.60;;;18.80;;
67372;SDS011;54257;54.496;18.412;2022-11-20T00:06:24;33.40;;;19.40;;
67372;SDS011;54257;54.496;18.412;2022-11-20T00:08:56;34.80;;;18.80;;
67372;SDS011;54257;54.496;18.412;2022-11-20T00:11:25;33.10;;;20.00;;
67372;SDS011;54257;54.496;18.412;2022-11-20T00:13:54;30.50;;;17.80;;
67372;SDS011;54257;54.496;18.412;2022-11-20T00:16:24;31.10;;;19.60;;
67372;SDS011;54257;54.496;18.412;2022-11-20T00:18:53;31.80;;;17.00;;
67372;SDS011;54257;54.496;18.412;2022-11-20T00:21:21;32.00;;;16.80;;
67372;SDS011;54257;54.496;18.412;2022-11-20T00:23:51;31.20;;;18.40;;
67372;SDS011;54257;54.496;18.412;2022-11-20T00:26:20;27.80;;;17.30;;
67372;SDS011;54257;54.496;18.412;2022-11-20T00:28:52;34.50;;;19.20;;
67372;SDS011;54257;54.496;18.412;2022-11-20T00:31:20;32.20;;;19.50;;
67372;SDS011;54257;54.496;18.412;2022-11-20T00:33:48;33.60;;;18.50;;
67372;SDS011;54257;54.496;18.412;2022-11-20T00:36:16;30.50;;;18.80;;
67372;SDS011;54257;54.496;18.412;2022-11-20T00:38:50;36.50;;;20.90;;
67372;SDS011;54257;54.496;18.412;2022-11-20T00:41:23;35.60;;;20.80;;
67372;SDS011;54257;54.496;18.412;2022-11-20T00:43:51;37.90;;;21.60;;
67372;SDS011;54257;54.496;18.412;2022-11-20T00:46:23;40.40;;;21.70;;
67372;SDS011;54257;54.496;18.412;2022-11-20T00:48:52;40.90;;;22.30;;
67372;SDS011;54257;54.496;18.412;2022-11-20T00:51:20;37.70;;;20.40;;
67372;SDS011;54257;54.496;18.412;2022-11-20T00:53:49;36.50;;;20.20;;
67372;SDS011;54257;54.496;18.412;2022-11-20T00:56:18;38.40;;;20.70;;
67372;SDS011;54257;54.496;18.412;2022-11-20T00:58:46;37.10;;;20.50;;
67372;SDS011;54257;54.496;18.412;2022-11-20T01:01:19;35.30;;;19.20;;
67372;SDS011;54257;54.496;18.412;2022-11-20T01:03:48;32.90;;;19.60;;
67372;SDS011;54257;54.496;18.412;2022-11-20T01:06:21;34.80;;;20.00;;
67372;SDS011;54257;54.496;18.412;2022-11-20T01:08:52;35.60;;;18.40;;
67372;SDS011;54257;54.496;18.412;2022-11-20T01:11:23;31.30;;;18.00;;
67372;SDS011;54257;54.496;18.412;2022-11-20T01:13:52;31.00;;;19.00;;
67372;SDS011;54257;54.496;18.412;2022-11-20T01:16:28;29.40;;;16.30;;
67372;SDS011;54257;54.496;18.412;2022-11-20T01:18:59;31.90;;;17.50;;
67372;SDS011;54257;54.496;18.412;2022-11-20T01:21:28;33.00;;;18.10;;
67372;SDS011;54257;54.496;18.412;2022-11-20T01:24:00;30.60;;;16.40;;
67372;SDS011;54257;54.496;18.412;2022-11-20T01:26:28;28.60;;;15.50;;
67372;SDS011;54257;54.496;18.412;2022-11-20T01:28:57;32.90;;;18.40;;
67372;SDS011;54257;54.496;18.412;2022-11-20T01:33:55;28.70;;;17.70;;
67372;SDS011;54257;54.496;18.412;2022-11-20T01:36:25;30.60;;;17.40;;
67372;SDS011;54257;54.496;18.412;2022-11-20T01:38:54;30.60;;;16.50;;
67372;SDS011;54257;54.496;18.412;2022-11-20T01:41:22;27.40;;;16.40;;
67372;SDS011;54257;54.496;18.412;2022-11-20T01:44:14;30.10;;;17.40;;
67372;SDS011;54257;54.496;18.412;2022-11-20T01:46:55;31.00;;;17.50;;
67372;SDS011;54257;54.496;18.412;2022-11-20T01:52:08;29.50;;;17.10;;
67372;SDS011;54257;54.496;18.412;2022-11-20T01:54:44;27.40;;;16.10;;
67372;SDS011;54257;54.496;18.412;2022-11-20T01:59:44;32.90;;;16.60;;
67372;SDS011;54257;54.496;18.412;2022-11-20T02:02:19;31.00;;;18.20;;
67372;SDS011;54257;54.496;18.412;2022-11-20T02:04:49;31.50;;;18.00;;
67372;SDS011;54257;54.496;18.412;2022-11-20T02:07:21;32.20;;;18.10;;
67372;SDS011;54257;54.496;18.412;2022-11-20T02:09:50;29.10;;;16.80;;
67372;SDS011;54257;54.496;18.412;2022-11-20T02:12:18;29.20;;;18.40;;
67372;SDS011;54257;54.496;18.412;2022-11-20T02:15:04;29.50;;;17.40;;
67372;SDS011;54257;54.496;18.412;2022-11-20T02:17:31;27.40;;;16.10;;
67372;SDS011;54257;54.496;18.412;2022-11-20T02:19:58;26.30;;;15.70;;
67372;SDS011;54257;54.496;18.412;2022-11-20T02:22:31;29.90;;;15.40;;
67372;SDS011;54257;54.496;18.412;2022-11-20T02:25:06;24.10;;;14.70;;
67372;SDS011;54257;54.496;18.412;2022-11-20T02:27:35;24.20;;;14.60;;
67372;SDS011;54257;54.496;18.412;2022-11-20T02:30:04;23.70;;;13.40;;
67372;SDS011;54257;54.496;18.412;2022-11-20T02:32:37;21.60;;;13.70;;
67372;SDS011;54257;54.496;18.412;2022-11-20T02:37:44;25.40;;;15.60;;
67372;SDS011;54257;54.496;18.412;2022-11-20T02:40:16;30.10;;;17.80;;
67372;SDS011;54257;54.496;18.412;2022-11-20T02:42:43;29.20;;;18.50;;
67372;SDS011;54257;54.496;18.412;2022-11-20T02:45:11;32.00;;;17.30;;
67372;SDS011;54257;54.496;18.412;2022-11-20T02:47:38;29.80;;;18.50;;
67372;SDS011;54257;54.496;18.412;2022-11-20T02:50:05;31.00;;;17.00;;
67372;SDS011;54257;54.496;18.412;2022-11-20T02:52:32;32.70;;;18.60;;
67372;SDS011;54257;54.496;18.412;2022-11-20T02:54:59;33.40;;;19.00;;
67372;SDS011;54257;54.496;18.412;2022-11-20T02:57:27;33.90;;;18.80;;
67372;SDS011;54257;54.496;18.412;2022-11-20T02:59:54;32.90;;;18.90;;
67372;SDS011;54257;54.496;18.412;2022-11-20T03:02:21;33.70;;;19.60;;
67372;SDS011;54257;54.496;18.412;2022-11-20T03:04:48;36.50;;;19.00;;
67372;SDS011;54257;54.496;18.412;2022-11-20T03:07:15;35.50;;;20.50;;
67372;SDS011;54257;54.496;18.412;2022-11-20T03:09:42;33.50;;;19.10;;
67372;SDS011;54257;54.496;18.412;2022-11-20T03:12:09;36.20;;;20.10;;
67372;SDS011;54257;54.496;18.412;2022-11-20T03:14:36;32.40;;;20.20;;
67372;SDS011;54257;54.496;18.412;2022-11-20T03:17:03;32.50;;;19.30;;
67372;SDS011;54257;54.496;18.412;2022-11-20T03:19:30;30.90;;;18.00;;
67372;SDS011;54257;54.496;18.412;2022-11-20T03:21:57;36.00;;;19.50;;
67372;SDS011;54257;54.496;18.412;2022-11-20T03:24:24;34.90;;;20.30;;
67372;SDS011;54257;54.496;18.412;2022-11-20T03:26:51;36.40;;;18.90;;
67372;SDS011;54257;54.496;18.412;2022-11-20T03:29:18;33.70;;;19.70;;
67372;SDS011;54257;54.496;18.412;2022-11-20T03:31:45;32.80;;;20.40;;
67372;SDS011;54257;54.496;18.412;2022-11-20T03:34:12;39.40;;;20.70;;
67372;SDS011;54257;54.496;18.412;2022-11-20T03:40:21;33.20;;;18.40;;
67372;SDS011;54257;54.496;18.412;2022-11-20T03:42:48;35.30;;;19.10;;
67372;SDS011;54257;54.496;18.412;2022-11-20T03:45:16;31.20;;;18.20;;
67372;SDS011;54257;54.496;18.412;2022-11-20T03:47:44;31.90;;;19.10;;
67372;SDS011;54257;54.496;18.412;2022-11-20T03:50:12;33.30;;;18.10;;
67372;SDS011;54257;54.496;18.412;2022-11-20T03:52:40;32.30;;;17.60;;
67372;SDS011;54257;54.496;18.412;2022-11-20T03:55:08;32.40;;;19.40;;
67372;SDS011;54257;54.496;18.412;2022-11-20T03:57:36;30.70;;;17.70;;
67372;SDS011;54257;54.496;18.412;2022-11-20T04:00:03;35.00;;;19.40;;
67372;SDS011;54257;54.496;18.412;2022-11-20T04:02:31;33.60;;;17.50;;
67372;SDS011;54257;54.496;18.412;2022-11-20T04:04:58;30.50;;;18.40;;
67372;SDS011;54257;54.496;18.412;2022-11-20T04:07:25;29.60;;;18.20;;
67372;SDS011;54257;54.496;18.412;2022-11-20T04:09:52;29.50;;;17.20;;
67372;SDS011;54257;54.496;18.412;2022-11-20T04:12:19;28.90;;;18.00;;
67372;SDS011;54257;54.496;18.412;2022-11-20T04:14:46;33.70;;;18.40;;
67372;SDS011;54257;54.496;18.412;2022-11-20T04:17:13;31.70;;;18.70;;
67372;SDS011;54257;54.496;18.412;2022-11-20T04:19:40;31.70;;;18.50;;
67372;SDS011;54257;54.496;18.412;2022-11-20T04:22:06;29.70;;;18.60;;
67372;SDS011;54257;54.496;18.412;2022-11-20T04:24:34;32.30;;;18.30;;
67372;SDS011;54257;54.496;18.412;2022-11-20T04:27:01;36.00;;;18.80;;
67372;SDS011;54257;54.496;18.412;2022-11-20T04:29:27;31.00;;;18.80;;
67372;SDS011;54257;54.496;18.412;2022-11-20T04:31:54;33.70;;;18.30;;
67372;SDS011;54257;54.496;18.412;2022-11-20T04:34:21;32.60;;;19.20;;
67372;SDS011;54257;54.496;18.412;2022-11-20T04:36:48;37.20;;;19.90;;
67372;SDS011;54257;54.496;18.412;2022-11-20T04:39:15;31.60;;;18.30;;
67372;SDS011;54257;54.496;18.412;2022-11-20T04:41:43;27.80;;;16.30;;
67372;SDS011;54257;54.496;18.412;2022-11-20T04:44:10;29.20;;;16.60;;
67372;SDS011;54257;54.496;18.412;2022-11-20T04:46:39;30.30;;;18.10;;
67372;SDS011;54257;54.496;18.412;2022-11-20T04:49:07;32.10;;;18.50;;
67372;SDS011;54257;54.496;18.412;2022-11-20T04:51:35;33.90;;;17.90;;
67372;SDS011;54257;54.496;18.412;2022-11-20T04:54:02;28.10;;;16.10;;
67372;SDS011;54257;54.496;18.412;2022-11-20T04:56:29;28.70;;;16.60;;
67372;SDS011;54257;54.496;18.412;2022-11-20T04:58:59;27.90;;;16.10;;
67372;SDS011;54257;54.496;18.412;2022-11-20T05:01:28;33.70;;;17.80;;
67372;SDS011;54257;54.496;18.412;2022-11-20T05:03:55;29.80;;;16.40;;
67372;SDS011;54257;54.496;18.412;2022-11-20T05:06:22;28.70;;;16.20;;
67372;SDS011;54257;54.496;18.412;2022-11-20T05:08:50;31.20;;;18.00;;
67372;SDS011;54257;54.496;18.412;2022-11-20T05:11:19;31.80;;;18.70;;
67372;SDS011;54257;54.496;18.412;2022-11-20T05:13:47;30.70;;;17.20;;
67372;SDS011;54257;54.496;18.412;2022-11-20T05:16:17;28.10;;;16.30;;
67372;SDS011;54257;54.496;18.412;2022-11-20T05:18:46;32.10;;;18.40;;
67372;SDS011;54257;54.496;18.412;2022-11-20T05:21:14;35.20;;;20.10;;
67372;SDS011;54257;54.496;18.412;2022-11-20T05:23:42;31.50;;;18.50;;
67372;SDS011;54257;54.496;18.412;2022-11-20T05:26:13;34.30;;;19.20;;
67372;SDS011;54257;54.496;18.412;2022-11-20T05:28:42;35.60;;;18.50;;
67372;SDS011;54257;54.496;18.412;2022-11-20T05:31:11;34.60;;;18.00;;
67372;SDS011;54257;54.496;18.412;2022-11-20T05:33:40;31.90;;;17.60;;
67372;SDS011;54257;54.496;18.412;2022-11-20T05:36:10;35.10;;;19.30;;
67372;SDS011;54257;54.496;18.412;2022-11-20T05:38:39;33.10;;;18.30;;
67372;SDS011;54257;54.496;18.412;2022-11-20T05:41:09;32.30;;;18.10;;
67372;SDS011;54257;54.496;18.412;2022-11-20T05:43:41;32.60;;;18.10;;
67372;SDS011;54257;54.496;18.412;2022-11-20T05:46:10;33.50;;;18.30;;
67372;SDS011;54257;54.496;18.412;2022-11-20T05:48:39;32.80;;;18.50;;
67372;SDS011;54257;54.496;18.412;2022-11-20T05:51:08;31.20;;;18.10;;
67372;SDS011;54257;54.496;18.412;2022-11-20T05:53:38;33.60;;;17.40;;
67372;SDS011;54257;54.496;18.412;2022-11-20T05:58:33;33.40;;;16.90;;
67372;SDS011;54257;54.496;18.412;2022-11-20T06:01:08;32.30;;;17.80;;
67372;SDS011;54257;54.496;18.412;2022-11-20T06:03:44;28.90;;;15.90;;
67372;SDS011;54257;54.496;18.412;2022-11-20T06:06:14;25.70;;;14.30;;
67372;SDS011;54257;54.496;18.412;2022-11-20T06:08:42;32.90;;;17.20;;
67372;SDS011;54257;54.496;18.412;2022-11-20T06:11:10;29.50;;;17.20;;
67372;SDS011;54257;54.496;18.412;2022-11-20T06:13:39;27.00;;;15.50;;
67372;SDS011;54257;54.496;18.412;2022-11-20T06:16:07;30.00;;;17.30;;
67372;SDS011;54257;54.496;18.412;2022-11-20T06:18:35;30.50;;;17.30;;
67372;SDS011;54257;54.496;18.412;2022-11-20T06:21:14;28.80;;;15.80;;
67372;SDS011;54257;54.496;18.412;2022-11-20T06:23:44;28.30;;;15.60;;
67372;SDS011;54257;54.496;18.412;2022-11-20T06:26:12;29.70;;;16.50;;
67372;SDS011;54257;54.496;18.412;2022-11-20T06:28:44;30.80;;;17.60;;
67372;SDS011;54257;54.496;18.412;2022-11-20T06:31:13;36.10;;;18.10;;
67372;SDS011;54257;54.496;18.412;2022-11-20T06:33:42;34.30;;;19.40;;
67372;SDS011;54257;54.496;18.412;2022-11-20T06:36:10;30.00;;;15.80;;
67372;SDS011;54257;54.496;18.412;2022-11-20T06:38:39;27.70;;;14.70;;
67372;SDS011;54257;54.496;18.412;2022-11-20T06:41:07;29.80;;;14.70;;
67372;SDS011;54257;54.496;18.412;2022-11-20T06:43:38;26.80;;;14.80;;
67372;SDS011;54257;54.496;18.412;2022-11-20T06:46:04;25.20;;;14.50;;
67372;SDS011;54257;54.496;18.412;2022-11-20T06:48:32;29.30;;;16.30;;
67372;SDS011;54257;54.496;18.412;2022-11-20T06:50:59;28.20;;;15.40;;
67372;SDS011;54257;54.496;18.412;2022-11-20T06:53:26;22.20;;;13.80;;
67372;SDS011;54257;54.496;18.412;2022-11-20T06:55:55;23.10;;;13.80;;
67372;SDS011;54257;54.496;18.412;2022-11-20T06:58:23;30.70;;;14.90;;
67372;SDS011;54257;54.496;18.412;2022-11-20T07:00:53;27.00;;;14.50;;
67372;SDS011;54257;54.496;18.412;2022-11-20T07:03:20;26.00;;;14.50;;
67372;SDS011;54257;54.496;18.412;2022-11-20T07:05:47;26.80;;;15.00;;
67372;SDS011;54257;54.496;18.412;2022-11-20T07:08:14;29.50;;;16.00;;
67372;SDS011;54257;54.496;18.412;2022-11-20T07:10:42;26.30;;;14.70;;
67372;SDS011;54257;54.496;18.412;2022-11-20T07:13:09;27.00;;;15.20;;
67372;SDS011;54257;54.496;18.412;2022-11-20T07:15:36;31.20;;;16.60;;
67372;SDS011;54257;54.496;18.412;2022-11-20T07:18:03;28.80;;;15.80;;
67372;SDS011;54257;54.496;18.412;2022-11-20T07:20:31;26.30;;;15.40;;
67372;SDS011;54257;54.496;18.412;2022-11-20T07:22:58;25.50;;;12.80;;
67372;SDS011;54257;54.496;18.412;2022-11-20T07:25:25;26.40;;;14.00;;
67372;SDS011;54257;54.496;18.412;2022-11-20T07:27:57;25.10;;;14.80;;
67372;SDS011;54257;54.496;18.412;2022-11-20T07:30:25;22.70;;;12.90;;
67372;SDS011;54257;54.496;18.412;2022-11-20T07:32:54;20.70;;;13.30;;
67372;SDS011;54257;54.496;18.412;2022-11-20T07:35:22;28.90;;;15.30;;
67372;SDS011;54257;54.496;18.412;2022-11-20T07:37:50;24.10;;;15.20;;
67372;SDS011;54257;54.496;18.412;2022-11-20T07:40:17;25.20;;;14.50;;
67372;SDS011;54257;54.496;18.412;2022-11-20T07:42:48;30.60;;;15.30;;
67372;SDS011;54257;54.496;18.412;2022-11-20T07:45:17;24.60;;;13.80;;
67372;SDS011;54257;54.496;18.412;2022-11-20T07:47:45;21.90;;;12.50;;
67372;SDS011;54257;54.496;18.412;2022-11-20T07:50:12;23.60;;;14.20;;
67372;SDS011;54257;54.496;18.412;2022-11-20T07:52:40;20.50;;;12.40;;
67372;SDS011;54257;54.496;18.412;2022-11-20T07:55:07;18.60;;;11.40;;
67372;SDS011;54257;54.496;18.412;2022-11-20T07:57:36;21.20;;;11.40;;
67372;SDS011;54257;54.496;18.412;2022-11-20T08:00:03;22.80;;;13.10;;
67372;SDS011;54257;54.496;18.412;2022-11-20T08:02:31;23.30;;;13.60;;
67372;SDS011;54257;54.496;18.412;2022-11-20T08:04:58;26.00;;;13.80;;
67372;SDS011;54257;54.496;18.412;2022-11-20T08:07:28;24.80;;;14.80;;
67372;SDS011;54257;54.496;18.412;2022-11-20T08:09:55;27.30;;;15.20;;
67372;SDS011;54257;54.496;18.412;2022-11-20T08:12:22;25.10;;;14.00;;
67372;SDS011;54257;54.496;18.412;2022-11-20T08:15:09;24.80;;;14.50;;
67372;SDS011;54257;54.496;18.412;2022-11-20T08:17:36;24.60;;;14.50;;
67372;SDS011;54257;54.496;18.412;2022-11-20T08:20:04;26.30;;;14.60;;
67372;SDS011;54257;54.496;18.412;2022-11-20T08:22:31;27.40;;;15.10;;
67372;SDS011;54257;54.496;18.412;2022-11-20T08:24:58;23.80;;;14.10;;
67372;SDS011;54257;54.496;18.412;2022-11-20T08:27:25;23.20;;;15.00;;
67372;SDS011;54257;54.496;18.412;2022-11-20T08:29:52;34.10;;;18.90;;
67372;SDS011;54257;54.496;18.412;2022-11-20T08:32:19;32.80;;;17.70;;
67372;SDS011;54257;54.496;18.412;2022-11-20T08:34:46;31.10;;;17.40;;
67372;SDS011;54257;54.496;18.412;2022-11-20T08:37:15;36.40;;;18.30;;
67372;SDS011;54257;54.496;18.412;2022-11-20T08:39:42;31.00;;;17.40;;
67372;SDS011;54257;54.496;18.412;2022-11-20T08:42:09;30.90;;;17.80;;
67372;SDS011;54257;54.496;18.412;2022-11-20T08:44:36;30.80;;;16.80;;
67372;SDS011;54257;54.496;18.412;2022-11-20T08:47:03;31.20;;;16.70;;
67372;SDS011;54257;54.496;18.412;2022-11-20T08:49:30;30.30;;;16.20;;
67372;SDS011;54257;54.496;18.412;2022-11-20T08:51:57;30.70;;;17.90;;
67372;SDS011;54257;54.496;18.412;2022-11-20T08:54:24;29.10;;;15.70;;
67372;SDS011;54257;54.496;18.412;2022-11-20T08:56:51;28.20;;;15.60;;
67372;SDS011;54257;54.496;18.412;2022-11-20T08:59:18;29.90;;;16.90;;
67372;SDS011;54257;54.496;18.412;2022-11-20T09:01:45;32.80;;;17.00;;
67372;SDS011;54257;54.496;18.412;2022-11-20T09:04:13;29.80;;;16.70;;
67372;SDS011;54257;54.496;18.412;2022-11-20T09:06:40;33.40;;;17.30;;
67372;SDS011;54257;54.496;18.412;2022-11-20T09:09:08;31.70;;;17.50;;
67372;SDS011;54257;54.496;18.412;2022-11-20T09:11:38;35.10;;;18.40;;
67372;SDS011;54257;54.496;18.412;2022-11-20T09:14:05;33.00;;;17.70;;
67372;SDS011;54257;54.496;18.412;2022-11-20T09:16:32;35.20;;;19.50;;
67372;SDS011;54257;54.496;18.412;2022-11-20T09:18:59;36.30;;;19.20;;
67372;SDS011;54257;54.496;18.412;2022-11-20T09:21:26;31.50;;;16.00;;
67372;SDS011;54257;54.496;18.412;2022-11-20T09:23:53;36.00;;;18.40;;
67372;SDS011;54257;54.496;18.412;2022-11-20T09:26:20;30.50;;;15.70;;
67372;SDS011;54257;54.496;18.412;2022-11-20T09:28:48;35.60;;;18.50;;
67372;SDS011;54257;54.496;18.412;2022-11-20T09:31:24;34.70;;;19.00;;
67372;SDS011;54257;54.496;18.412;2022-11-20T09:33:52;33.70;;;17.70;;
67372;SDS011;54257;54.496;18.412;2022-11-20T09:36:20;30.40;;;17.20;;
67372;SDS011;54257;54.496;18.412;2022-11-20T09:38:48;28.50;;;14.80;;
67372;SDS011;54257;54.496;18.412;2022-11-20T09:49:56;37.90;;;17.30;;
67372;SDS011;54257;54.496;18.412;2022-11-20T09:55:08;35.40;;;18.50;;
67372;SDS011;54257;54.496;18.412;2022-11-20T09:57:40;33.90;;;18.00;;
67372;SDS011;54257;54.496;18.412;2022-11-20T10:00:12;38.60;;;19.20;;
67372;SDS011;54257;54.496;18.412;2022-11-20T10:05:18;40.10;;;19.40;;
67372;SDS011;54257;54.496;18.412;2022-11-20T10:07:52;43.00;;;21.40;;
67372;SDS011;54257;54.496;18.412;2022-11-20T10:10:45;42.10;;;20.40;;
67372;SDS011;54257;54.496;18.412;2022-11-20T10:16:05;45.20;;;22.30;;
67372;SDS011;54257;54.496;18.412;2022-11-20T10:26:57;35.60;;;19.30;;
67372;SDS011;54257;54.496;18.412;2022-11-20T10:29:32;38.00;;;19.10;;
67372;SDS011;54257;54.496;18.412;2022-11-20T10:32:11;39.50;;;19.10;;
67372;SDS011;54257;54.496;18.412;2022-11-20T10:34:50;33.10;;;18.80;;
67372;SDS011;54257;54.496;18.412;2022-11-20T10:37:25;38.40;;;19.90;;
67372;SDS011;54257;54.496;18.412;2022-11-20T10:39:57;33.00;;;18.10;;
67372;SDS011;54257;54.496;18.412;2022-11-20T10:42:46;33.80;;;19.20;;
67372;SDS011;54257;54.496;18.412;2022-11-20T10:47:52;38.10;;;18.00;;
67372;SDS011;54257;54.496;18.412;2022-11-20T10:50:23;34.70;;;18.20;;
67372;SDS011;54257;54.496;18.412;2022-11-20T10:56:00;36.30;;;18.90;;
67372;SDS011;54257;54.496;18.412;2022-11-20T11:01:39;32.90;;;18.10;;
67372;SDS011;54257;54.496;18.412;2022-11-20T11:04:52;41.50;;;20.10;;
67372;SDS011;54257;54.496;18.412;2022-11-20T11:09:53;41.10;;;20.70;;
67372;SDS011;54257;54.496;18.412;2022-11-20T11:12:24;36.00;;;18.60;;
67372;SDS011;54257;54.496;18.412;2022-11-20T11:14:53;38.30;;;19.50;;
67372;SDS011;54257;54.496;18.412;2022-11-20T11:17:31;34.60;;;20.00;;
67372;SDS011;54257;54.496;18.412;2022-11-20T11:20:06;33.00;;;18.10;;
67372;SDS011;54257;54.496;18.412;2022-11-20T11:22:46;40.80;;;18.70;;
67372;SDS011;54257;54.496;18.412;2022-11-20T11:25:34;38.00;;;18.70;;
67372;SDS011;54257;54.496;18.412;2022-11-20T11:28:03;28.80;;;15.80;;
67372;SDS011;54257;54.496;18.412;2022-11-20T11:30:46;36.40;;;18.70;;
67372;SDS011;54257;54.496;18.412;2022-11-20T11:33:23;32.90;;;19.30;;
67372;SDS011;54257;54.496;18.412;2022-11-20T11:35:56;30.20;;;16.10;;
67372;SDS011;54257;54.496;18.412;2022-11-20T11:38:30;36.60;;;17.70;;
67372;SDS011;54257;54.496;18.412;2022-11-20T11:41:04;33.50;;;17.90;;
67372;SDS011;54257;54.496;18.412;2022-11-20T11:43:36;35.80;;;20.60;;
67372;SDS011;54257;54.496;18.412;2022-11-20T11:46:33;38.90;;;19.30;;
67372;SDS011;54257;54.496;18.412;2022-11-20T11:51:32;37.40;;;19.90;;
67372;SDS011;54257;54.496;18.412;2022-11-20T11:54:02;42.80;;;20.90;;
67372;SDS011;54257;54.496;18.412;2022-11-20T11:56:32;40.30;;;19.50;;
67372;SDS011;54257;54.496;18.412;2022-11-20T11:59:00;41.10;;;20.60;;
67372;SDS011;54257;54.496;18.412;2022-11-20T12:06:52;43.80;;;19.80;;
67372;SDS011;54257;54.496;18.412;2022-11-20T12:09:27;41.30;;;;;
67372;SDS011;54257;54.496;18.412;2022-11-20T12:12:05;43.90;;;19.40;;
67372;SDS011;54257;54.496;18.412;2022-11-20T12:14:38;41.80;;;18.80;;
67372;SDS011;54257;54.496;18.412;2022-11-20T12:17:10;40.10;;;19.30;;
67372;SDS011;54257;54.496;18.412;2022-11-20T12:19:40;36.70;;;17.40;;
67372;SDS011;54257;54.496;18.412;2022-11-20T12:30:33;32.40;;;16.60;;
67372;SDS011;54257;54.496;18.412;2022-11-20T13:01:47;42.80;;;21.30;;
67372;SDS011;54257;54.496;18.412;2022-11-20T13:06:46;41.40;;;21.40;;
67372;SDS011;54257;54.496;18.412;2022-11-20T13:09:17;37.90;;;20.90;;
67372;SDS011;54257;54.496;18.412;2022-11-20T13:14:40;41.50;;;22.00;;
67372;SDS011;54257;54.496;18.412;2022-11-20T13:19:57;47.20;;;23.50;;
67372;SDS011;54257;54.496;18.412;2022-11-20T13:22:31;45.30;;;22.80;;
67372;SDS011;54257;54.496;18.412;2022-11-20T13:27:59;35.40;;;21.10;;
67372;SDS011;54257;54.496;18.412;2022-11-20T13:30:50;42.70;;;23.10;;
67372;SDS011;54257;54.496;18.412;2022-11-20T13:33:23;54.10;;;24.40;;
67372;SDS011;54257;54.496;18.412;2022-11-20T13:36:04;37.30;;;22.60;;
67372;SDS011;54257;54.496;18.412;2022-11-20T13:38:44;42.00;;;22.30;;
67372;SDS011;54257;54.496;18.412;2022-11-20T13:47:04;48.50;;;24.50;;
67372;SDS011;54257;54.496;18.412;2022-11-20T13:49:49;52.90;;;24.20;;
67372;SDS011;54257;54.496;18.412;2022-11-20T14:00:57;45.40;;;23.40;;
67372;SDS011;54257;54.496;18.412;2022-11-20T14:03:31;49.70;;;25.30;;
67372;SDS011;54257;54.496;18.412;2022-11-20T14:06:05;50.70;;;24.30;;
67372;SDS011;54257;54.496;18.412;2022-11-20T14:08:42;44.10;;;21.80;;
67372;SDS011;54257;54.496;18.412;2022-11-20T14:11:19;48.10;;;24.40;;
67372;SDS011;54257;54.496;18.412;2022-11-20T14:13:54;48.40;;;24.10;;
67372;SDS011;54257;54.496;18.412;2022-11-20T14:16:29;50.50;;;24.70;;
67372;SDS011;54257;54.496;18.412;2022-11-20T14:22:15;47.80;;;24.90;;
67372;SDS011;54257;54.496;18.412;2022-11-20T14:24:46;44.20;;;23.90;;
67372;SDS011;54257;54.496;18.412;2022-11-20T14:27:38;41.40;;;23.20;;
67372;SDS011;54257;54.496;18.412;2022-11-20T14:30:14;38.50;;;20.50;;
67372;SDS011;54257;54.496;18.412;2022-11-20T14:32:45;46.90;;;24.10;;
67372;SDS011;54257;54.496;18.412;2022-11-20T14:35:28;51.30;;;23.00;;
67372;SDS011;54257;54.496;18.412;2022-11-20T14:37:57;41.70;;;22.10;;
67372;SDS011;54257;54.496;18.412;2022-11-20T14:42:53;42.80;;;20.70;;
67372;SDS011;54257;54.496;18.412;2022-11-20T14:45:21;42.20;;;21.20;;
67372;SDS011;54257;54.496;18.412;2022-11-20T14:47:50;50.10;;;21.70;;
67372;SDS011;54257;54.496;18.412;2022-11-20T14:50:27;48.20;;;23.00;;
67372;SDS011;54257;54.496;18.412;2022-11-20T14:55:31;46.10;;;23.20;;
67372;SDS011;54257;54.496;18.412;2022-11-20T14:58:06;42.80;;;21.80;;
67372;SDS011;54257;54.496;18.412;2022-11-20T15:01:21;44.40;;;23.00;;
67372;SDS011;54257;54.496;18.412;2022-11-20T15:03:41;49.00;;;22.90;;
67372;SDS011;54257;54.496;18.412;2022-11-20T15:06:10;44.60;;;23.70;;
67372;SDS011;54257;54.496;18.412;2022-11-20T15:08:39;42.80;;;21.70;;
67372;SDS011;54257;54.496;18.412;2022-11-20T15:11:20;45.20;;;21.90;;
67372;SDS011;54257;54.496;18.412;2022-11-20T15:13:54;41.50;;;22.90;;
67372;SDS011;54257;54.496;18.412;2022-11-20T15:16:22;46.20;;;23.20;;
67372;SDS011;54257;54.496;18.412;2022-11-20T15:18:51;35.60;;;21.30;;
67372;SDS011;54257;54.496;18.412;2022-11-20T15:21:18;42.40;;;21.70;;
67372;SDS011;54257;54.496;18.412;2022-11-20T15:23:47;42.30;;;22.10;;
67372;SDS011;54257;54.496;18.412;2022-11-20T15:26:22;45.00;;;22.60;;
67372;SDS011;54257;54.496;18.412;2022-11-20T15:28:54;42.70;;;23.10;;
67372;SDS011;54257;54.496;18.412;2022-11-20T15:31:22;44.50;;;24.00;;
67372;SDS011;54257;54.496;18.412;2022-11-20T15:33:50;48.90;;;25.50;;
67372;SDS011;54257;54.496;18.412;2022-11-20T15:36:17;47.00;;;25.10;;
67372;SDS011;54257;54.496;18.412;2022-11-20T15:38:44;48.80;;;25.60;;
67372;SDS011;54257;54.496;18.412;2022-11-20T15:41:11;52.50;;;26.80;;
67372;SDS011;54257;54.496;18.412;2022-11-20T15:43:39;49.40;;;25.70;;
67372;SDS011;54257;54.496;18.412;2022-11-20T15:46:09;43.10;;;24.10;;
67372;SDS011;54257;54.496;18.412;2022-11-20T15:53:49;45.40;;;26.20;;
67372;SDS011;54257;54.496;18.412;2022-11-20T15:56:19;50.80;;;26.80;;
67372;SDS011;54257;54.496;18.412;2022-11-20T15:58:46;54.00;;;25.60;;
67372;SDS011;54257;54.496;18.412;2022-11-20T16:01:14;45.50;;;25.30;;
67372;SDS011;54257;54.496;18.412;2022-11-20T16:03:45;47.40;;;25.40;;
67372;SDS011;54257;54.496;18.412;2022-11-20T16:06:12;43.60;;;26.10;;
67372;SDS011;54257;54.496;18.412;2022-11-20T16:08:39;48.20;;;26.20;;
67372;SDS011;54257;54.496;18.412;2022-11-20T16:11:09;48.00;;;26.60;;
67372;SDS011;54257;54.496;18.412;2022-11-20T16:13:41;43.80;;;23.60;;
67372;SDS011;54257;54.496;18.412;2022-11-20T16:16:41;51.60;;;26.00;;
67372;SDS011;54257;54.496;18.412;2022-11-20T16:19:12;47.70;;;24.00;;
67372;SDS011;54257;54.496;18.412;2022-11-20T16:21:42;47.70;;;27.40;;
67372;SDS011;54257;54.496;18.412;2022-11-20T16:24:10;47.20;;;24.60;;
67372;SDS011;54257;54.496;18.412;2022-11-20T16:26:39;46.30;;;27.50;;
67372;SDS011;54257;54.496;18.412;2022-11-20T16:29:08;45.30;;;24.20;;
67372;SDS011;54257;54.496;18.412;2022-11-20T16:31:37;50.60;;;26.70;;
67372;SDS011;54257;54.496;18.412;2022-11-20T16:34:05;49.80;;;26.40;;
67372;SDS011;54257;54.496;18.412;2022-11-20T16:36:34;49.80;;;25.40;;
67372;SDS011;54257;54.496;18.412;2022-11-20T16:39:02;56.40;;;27.20;;
67372;SDS011;54257;54.496;18.412;2022-11-20T16:41:31;43.60;;;24.00;;
67372;SDS011;54257;54.496;18.412;2022-11-20T16:44:02;46.10;;;25.70;;